Capitol Logistics 866


EBLG
Liège Airport
Liege, BE
GOBD
Blaise Diagne International Airport
Dakar, SN

Route Details

Aircraft Information
Primary: Boeing 767-300BDSF
Backup: Not Available
Route Data
Distance: 2516nm
Sched. Duration: 4h 45m
Avg. Duration: 6h 20m (+176m)
Times Flown: 7
Recm'd Route: Not Available
Planned Altitude: 34,000ft
Origin Wx: EBLG 222120Z 20007KT 9999 BKN023 15/14 Q1013 NOSIG
Dest. Wx: GOBD 222100Z 35009KT 8000 NSC 28/25 Q1012 NOSIG
Notes:

Financial History
Total Freight: 695,154lbs
Average Load: 99,308lbs/flt
Fuel Used: 497,300lbs
Avg. Fuel Used: 71,043lbs/flt
Fuel Expense: $552,003
Avg. Fuel Expense: $78,858
Avg. Fuel Cost: $1.11/lbs
Total Gross Income: $6,652,182
Pilot Pay: $1,683
Total Expenses: $718,800
Total Revenue: $5,369,883
Average Revenue: $950,311.77